Time;durP1;ratioP1;P1;durP2;ratioP2;P2;SDS_P1;SDS_P2;PMS_P1;PMS_P2;Temp;Humidity;BMP_temperature;BMP_pressure;BME280_temperature;BME280_humidity;BME280_pressure;Samples;Min_cycle;Max_cycle;Signal;HPM_P1;HPM_P2
2023/08/24 00:02:47;;;;;;;;;;;;;;;;;;5152712;27;19923;-70
2023/08/24 00:05:13;;;;;;;;;;;;;;;;;;5152511;27;19919;-69
2023/08/24 00:07:39;;;;;;;;;;;;;;;;;;5152836;27;19955;-69
2023/08/24 00:10:05;;;;;;;;;;;;;;;;;;5152816;27;20270;-70
2023/08/24 00:12:31;;;;;;;;;;;;;;;;;;5152350;27;19952;-70
2023/08/24 00:14:57;;;;;;;;;;;;;;;;;;5152721;27;20328;-70
2023/08/24 00:17:42;;;;;;;;;;;;;;;;;;5090998;27;19922;-68
2023/08/24 00:20:10;;;;;;;;;;;;;;;;;;5091263;28;20282;-69
2023/08/24 00:22:36;;;;;;;;;;;;;;;;;;5091179;28;19944;-69
2023/08/24 00:25:02;;;;;;;;;;;;;;;;;;5089468;28;19952;-69
2023/08/24 00:27:28;;;;;;;;;;;;;;;;;;5091157;28;19913;-69
2023/08/24 00:29:54;;;;;;;;;;;;;;;;;;5091078;28;20248;-69
2023/08/24 00:32:20;;;;;;;;;;;;;;;;;;5090532;28;20261;-69
2023/08/24 00:35:53;;;;;;;;;;;;;;;;;;5111707;27;19916;-69
2023/08/24 00:40:40;;;;;;;;;;;;;;;;;;5111498;27;19915;-68
2023/08/24 00:43:06;;;;;;;;;;;;;;;;;;5111613;28;20003;-69
2023/08/24 00:45:36;;;;;;;;;;;;;;;;;;5109851;28;19908;-69
2023/08/24 00:48:52;;;;;;;;;;;;;;;;;;5112158;27;20377;-68
2023/08/24 00:53:21;;;;;;;;;;;;;;;;;;5091084;27;19916;-68
2023/08/24 00:56:24;;;;;;;;;;;;;;;;;;5111930;27;19938;-69
2023/08/24 00:58:50;;;;;;;;;;;;;;;;;;5112007;28;19912;-69
2023/08/24 01:02:47;;;;;;;;;;;;;;;;;;5132131;27;19918;-68
2023/08/24 01:05:13;;;;;;;;;;;;;;;;;;5132260;28;20325;-68
2023/08/24 01:09:22;;;;;;;;;;;;;;;;;;5092091;27;19916;-68
2023/08/24 01:12:37;;;;;;;;;;;;;;;;;;5092108;27;19916;-69
2023/08/24 01:16:21;;;;;;;;;;;;;;;;;;5091917;27;19923;-68
2023/08/24 01:18:47;;;;;;;;;;;;;;;;;;5091336;28;20346;-68
2023/08/24 01:21:13;;;;;;;;;;;;;;;;;;5090802;28;19908;-68
2023/08/24 01:25:49;;;;;;;;;;;;;;;;;;5071456;28;19917;-69
2023/08/24 01:28:15;;;;;;;;;;;;;;;;;;5071151;28;19972;-68
2023/08/24 01:30:41;;;;;;;;;;;;;;;;;;5071028;28;19909;-68
2023/08/24 01:33:55;;;;;;;;;;;;;;;;;;5091435;27;20299;-68
2023/08/24 01:38:37;;;;;;;;;;;;;;;;;;5091494;27;19923;-68
2023/08/24 01:41:03;;;;;;;;;;;;;;;;;;5091268;28;19995;-68
2023/08/24 01:45:25;;;;;;;;;;;;;;;;;;5112509;27;19916;-69
2023/08/24 01:47:51;;;;;;;;;;;;;;;;;;5111598;28;19912;-68
2023/08/24 01:50:17;;;;;;;;;;;;;;;;;;5111221;28;20321;-68
2023/08/24 01:53:11;;;;;;;;;;;;;;;;;;5153002;27;20014;-68
2023/08/24 01:55:37;;;;;;;;;;;;;;;;;;5134154;27;19951;-69
2023/08/24 02:00:14;;;;;;;;;;;;;;;;;;5112394;27;19916;-69
2023/08/24 02:02:40;;;;;;;;;;;;;;;;;;5111786;28;19912;-69
2023/08/24 02:05:05;;;;;;;;;;;;;;;;;;5111217;28;20010;-69
2023/08/24 02:07:31;;;;;;;;;;;;;;;;;;5111581;28;19961;-69
2023/08/24 02:09:57;;;;;;;;;;;;;;;;;;5111446;28;19999;-68
2023/08/24 02:12:23;;;;;;;;;;;;;;;;;;5111591;28;19912;-69
2023/08/24 02:14:49;;;;;;;;;;;;;;;;;;5110101;28;19908;-68
2023/08/24 02:17:15;;;;;;;;;;;;;;;;;;5110923;28;19908;-68
2023/08/24 02:21:05;;;;;;;;;;;;;;;;;;5111681;27;19922;-68
2023/08/24 02:23:31;;;;;;;;;;;;;;;;;;5111697;28;20003;-68
2023/08/24 02:25:57;;;;;;;;;;;;;;;;;;5111201;28;20411;-69
2023/08/24 02:28:23;;;;;;;;;;;;;;;;;;5111752;28;19954;-68
2023/08/24 02:30:49;;;;;;;;;;;;;;;;;;5111544;28;19908;-68
2023/08/24 02:34:30;;;;;;;;;;;;;;;;;;5091455;27;19923;-68
2023/08/24 02:37:42;;;;;;;;;;;;;;;;;;5132464;27;19918;-69
2023/08/24 02:40:09;;;;;;;;;;;;;;;;;;5131713;28;20387;-69
2023/08/24 02:42:35;;;;;;;;;;;;;;;;;;5132395;28;19912;-69
2023/08/24 02:45:01;;;;;;;;;;;;;;;;;;5131598;28;20355;-69
2023/08/24 02:47:44;;;;;;;;;;;;;;;;;;5111830;27;20294;-68
2023/08/24 02:50:10;;;;;;;;;;;;;;;;;;5111627;28;20007;-68
2023/08/24 02:52:36;;;;;;;;;;;;;;;;;;5111232;28;19938;-68
2023/08/24 02:57:27;;;;;;;;;;;;;;;;;;5092112;28;19919;-68
2023/08/24 02:59:53;;;;;;;;;;;;;;;;;;5090844;28;20010;-69
2023/08/24 03:03:05;;;;;;;;;;;;;;;;;;5111773;27;19912;-68
2023/08/24 03:05:32;;;;;;;;;;;;;;;;;;5111618;28;19912;-69
2023/08/24 03:07:58;;;;;;;;;;;;;;;;;;5111201;28;19908;-69
2023/08/24 03:10:24;;;;;;;;;;;;;;;;;;5111562;28;20007;-68
2023/08/24 03:12:49;;;;;;;;;;;;;;;;;;5111553;28;19912;-68
2023/08/24 03:15:15;;;;;;;;;;;;;;;;;;5111048;28;19908;-69
2023/08/24 03:17:41;;;;;;;;;;;;;;;;;;5111449;28;19958;-68
2023/08/24 03:20:07;;;;;;;;;;;;;;;;;;5111157;28;19908;-68
2023/08/24 03:23:03;;;;;;;;;;;;;;;;;;5091705;27;19919;-68
2023/08/24 03:25:29;;;;;;;;;;;;;;;;;;5091216;28;19935;-68
2023/08/24 03:30:07;;;;;;;;;;;;;;;;;;5111754;27;19923;-68
2023/08/24 03:34:20;;;;;;;;;;;;;;;;;;5071048;28;19923;-69
2023/08/24 03:36:47;;;;;;;;;;;;;;;;;;5071139;28;20011;-69
2023/08/24 03:39:49;;;;;;;;;;;;;;;;;;5092143;27;19923;-69
2023/08/24 03:42:15;;;;;;;;;;;;;;;;;;5090970;28;19999;-69
2023/08/24 03:45:53;;;;;;;;;;;;;;;;;;5112517;27;19916;-69
2023/08/24 03:48:19;;;;;;;;;;;;;;;;;;5111244;28;19999;-69
2023/08/24 03:50:45;;;;;;;;;;;;;;;;;;5111626;28;19961;-69
2023/08/24 03:53:12;;;;;;;;;;;;;;;;;;5110265;28;19928;-68
2023/08/24 03:55:38;;;;;;;;;;;;;;;;;;5111094;28;19915;-68
2023/08/24 03:58:04;;;;;;;;;;;;;;;;;;5110193;28;19987;-68
2023/08/24 04:01:52;;;;;;;;;;;;;;;;;;5091744;28;19923;-69
2023/08/24 04:07:55;;;;;;;;;;;;;;;;;;5071694;28;19925;-70
2023/08/24 04:10:21;;;;;;;;;;;;;;;;;;5070887;28;19951;-70
2023/08/24 04:14:52;;;;;;;;;;;;;;;;;;5091629;27;19923;-69
2023/08/24 04:17:18;;;;;;;;;;;;;;;;;;5091065;28;19917;-69
2023/08/24 04:20:23;;;;;;;;;;;;;;;;;;5112064;27;20383;-69
2023/08/24 04:22:49;;;;;;;;;;;;;;;;;;5111651;28;20000;-69
2023/08/24 04:25:15;;;;;;;;;;;;;;;;;;5109875;28;19931;-69
2023/08/24 04:27:41;;;;;;;;;;;;;;;;;;5110311;28;19948;-69
2023/08/24 04:32:36;;;;;;;;;;;;;;;;;;5090951;27;20376;-68
2023/08/24 04:35:02;;;;;;;;;;;;;;;;;;5091236;28;20007;-68
2023/08/24 04:37:28;;;;;;;;;;;;;;;;;;5091205;28;19908;-69
2023/08/24 04:40:20;;;;;;;;;;;;;;;;;;5092161;28;19913;-68
2023/08/24 04:43:36;;;;;;;;;;;;;;;;;;5112393;27;19916;-71
2023/08/24 04:46:02;;;;;;;;;;;;;;;;;;5110313;28;20257;-68
2023/08/24 04:48:32;;;;;;;;;;;;;;;;;;5111666;28;19908;-68
2023/08/24 04:50:58;;;;;;;;;;;;;;;;;;5111711;28;19994;-69
2023/08/24 04:53:24;;;;;;;;;;;;;;;;;;5111264;28;20344;-68
2023/08/24 04:57:01;;;;;;;;;;;;;;;;;;5112048;27;19922;-68
2023/08/24 04:59:27;;;;;;;;;;;;;;;;;;5111336;28;19912;-69
2023/08/24 05:01:53;;;;;;;;;;;;;;;;;;5110419;28;19908;-68
2023/08/24 05:04:19;;;;;;;;;;;;;;;;;;5111677;28;19912;-69
2023/08/24 05:06:45;;;;;;;;;;;;;;;;;;5111269;28;19908;-69
2023/08/24 05:09:11;;;;;;;;;;;;;;;;;;5111570;28;19944;-69
2023/08/24 05:12:58;;;;;;;;;;;;;;;;;;5091373;27;19920;-68
2023/08/24 05:15:24;;;;;;;;;;;;;;;;;;5087198;28;20332;-68
2023/08/24 05:17:53;;;;;;;;;;;;;;;;;;5091048;28;19909;-68
2023/08/24 05:20:19;;;;;;;;;;;;;;;;;;5089498;28;19912;-68
2023/08/24 05:23:58;;;;;;;;;;;;;;;;;;5071276;28;19927;-68
2023/08/24 05:27:55;;;;;;;;;;;;;;;;;;5109843;27;19918;-69
2023/08/24 05:31:50;;;;;;;;;;;;;;;;;;5090689;27;19916;-69
2023/08/24 05:34:16;;;;;;;;;;;;;;;;;;5089292;28;19912;-69
2023/08/24 05:36:42;;;;;;;;;;;;;;;;;;5089599;28;20390;-69
2023/08/24 05:39:08;;;;;;;;;;;;;;;;;;5089603;28;19962;-69
2023/08/24 05:41:36;;;;;;;;;;;;;;;;;;5089196;28;19920;-69
2023/08/24 05:44:27;;;;;;;;;;;;;;;;;;5089642;28;19917;-69
2023/08/24 05:46:53;;;;;;;;;;;;;;;;;;5089063;28;19919;-69
2023/08/24 05:49:19;;;;;;;;;;;;;;;;;;5086697;28;20193;-67
2023/08/24 05:51:45;;;;;;;;;;;;;;;;;;5088781;28;19938;-67
2023/08/24 05:54:11;;;;;;;;;;;;;;;;;;5088487;28;19918;-68
2023/08/24 05:57:59;;;;;;;;;;;;;;;;;;5154744;27;19920;-68
2023/08/24 06:00:25;;;;;;;;;;;;;;;;;;5143984;27;20370;-71
2023/08/24 06:02:51;;;;;;;;;;;;;;;;;;5142145;27;19996;-71
2023/08/24 06:05:17;;;;;;;;;;;;;;;;;;5146926;27;19921;-73
2023/08/24 06:07:43;;;;;;;;;;;;;;;;;;5131204;27;19943;-72
2023/08/24 06:10:09;;;;;;;;;;;;;;;;;;5138341;27;19958;-70
2023/08/24 06:12:36;;;;;;;;;;;;;;;;;;5126748;27;19911;-73
2023/08/24 06:16:04;;;;;;;;;;;;;;;;;;5084354;27;19924;-75
2023/08/24 06:18:30;;;;;;;;;;;;;;;;;;5085537;28;19913;-77
2023/08/24 06:20:56;;;;;;;;;;;;;;;;;;5084955;28;19913;-77
2023/08/24 06:23:22;;;;;;;;;;;;;;;;;;5084889;28;19912;-76
2023/08/24 06:25:48;;;;;;;;;;;;;;;;;;5085883;28;20278;-75
2023/08/24 06:28:14;;;;;;;;;;;;;;;;;;5086010;28;19913;-77
2023/08/24 06:30:40;;;;;;;;;;;;;;;;;;5070991;28;19909;-76
2023/08/24 06:33:06;;;;;;;;;;;;;;;;;;5067490;28;19913;-78
2023/08/24 06:35:32;;;;;;;;;;;;;;;;;;5101221;28;20369;-77
2023/08/24 06:38:39;;;;;;;;;;;;;;;;;;5069245;28;19916;-75
2023/08/24 06:41:44;;;;;;;;;;;;;;;;;;5110161;27;19916;-76
2023/08/24 06:44:10;;;;;;;;;;;;;;;;;;5110523;28;20439;-75
2023/08/24 06:46:36;;;;;;;;;;;;;;;;;;5111551;28;19951;-76
2023/08/24 06:51:16;;;;;;;;;;;;;;;;;;5088950;28;19916;-75
2023/08/24 06:53:42;;;;;;;;;;;;;;;;;;5089194;28;19913;-76
2023/08/24 06:56:08;;;;;;;;;;;;;;;;;;5089080;28;20391;-75
2023/08/24 06:58:34;;;;;;;;;;;;;;;;;;5087554;28;19913;-76
2023/08/24 07:01:00;;;;;;;;;;;;;;;;;;5088903;28;19954;-75
2023/08/24 07:03:26;;;;;;;;;;;;;;;;;;5090089;28;19961;-77
2023/08/24 07:08:03;;;;;;;;;;;;;;;;;;5090825;27;19920;-68
2023/08/24 07:10:29;;;;;;;;;;;;;;;;;;5083053;28;19912;-68
2023/08/24 07:12:54;;;;;;;;;;;;;;;;;;5076348;28;20406;-66
2023/08/24 07:15:20;;;;;;;;;;;;;;;;;;5084140;28;20271;-66
2023/08/24 07:17:46;;;;;;;;;;;;;;;;;;5070427;28;20440;-67
2023/08/24 07:20:13;;;;;;;;;;;;;;;;;;5104305;28;19936;-67
2023/08/24 07:22:39;;;;;;;;;;;;;;;;;;5074862;28;19913;-66
2023/08/24 07:25:05;;;;;;;;;;;;;;;;;;5085652;28;19966;-67
2023/08/24 07:27:31;;;;;;;;;;;;;;;;;;5078981;28;19920;-67
2023/08/24 07:29:57;;;;;;;;;;;;;;;;;;5073623;28;20272;-68
2023/08/24 07:32:23;;;;;;;;;;;;;;;;;;5070509;28;20331;-68
2023/08/24 07:34:49;;;;;;;;;;;;;;;;;;5086105;28;19920;-66
2023/08/24 07:37:15;;;;;;;;;;;;;;;;;;5067870;28;20300;-68
2023/08/24 07:39:41;;;;;;;;;;;;;;;;;;5061584;28;19920;-69
2023/08/24 07:42:07;;;;;;;;;;;;;;;;;;5073234;28;19947;-70
2023/08/24 07:44:33;;;;;;;;;;;;;;;;;;5077502;28;19908;-70
2023/08/24 07:46:59;;;;;;;;;;;;;;;;;;5078359;28;19924;-70
2023/08/24 07:49:25;;;;;;;;;;;;;;;;;;5078707;28;19919;-71
2023/08/24 07:51:51;;;;;;;;;;;;;;;;;;5073589;28;19919;-70
2023/08/24 07:54:17;;;;;;;;;;;;;;;;;;5079272;28;19928;-70
2023/08/24 07:56:43;;;;;;;;;;;;;;;;;;5072500;28;19913;-68
2023/08/24 07:59:09;;;;;;;;;;;;;;;;;;5085102;28;20442;-70
2023/08/24 08:01:35;;;;;;;;;;;;;;;;;;5087708;28;20272;-71
2023/08/24 08:04:00;;;;;;;;;;;;;;;;;;5088559;28;20352;-70
2023/08/24 08:06:27;;;;;;;;;;;;;;;;;;5074576;28;20355;-70
2023/08/24 08:08:53;;;;;;;;;;;;;;;;;;5066065;28;19912;-69
2023/08/24 08:11:19;;;;;;;;;;;;;;;;;;5066864;28;19908;-71
2023/08/24 08:13:45;;;;;;;;;;;;;;;;;;5063664;28;19913;-70
2023/08/24 08:16:11;;;;;;;;;;;;;;;;;;5051925;28;20421;-70
2023/08/24 08:18:37;;;;;;;;;;;;;;;;;;5034482;28;19916;-72
2023/08/24 08:21:03;;;;;;;;;;;;;;;;;;5030075;28;19910;-70
2023/08/24 08:23:29;;;;;;;;;;;;;;;;;;5029650;28;19909;-70
2023/08/24 08:25:55;;;;;;;;;;;;;;;;;;5030050;28;19913;-70
2023/08/24 08:28:21;;;;;;;;;;;;;;;;;;5034724;28;19913;-72
2023/08/24 08:30:47;;;;;;;;;;;;;;;;;;5039338;28;19913;-72
2023/08/24 08:33:13;;;;;;;;;;;;;;;;;;5038695;28;20438;-69
2023/08/24 08:35:39;;;;;;;;;;;;;;;;;;5045990;28;20400;-69
2023/08/24 08:38:05;;;;;;;;;;;;;;;;;;5054054;28;20019;-70
2023/08/24 08:40:31;;;;;;;;;;;;;;;;;;5055347;28;19912;-68
2023/08/24 08:42:57;;;;;;;;;;;;;;;;;;5045280;28;19967;-68
2023/08/24 08:45:23;;;;;;;;;;;;;;;;;;5047661;28;20368;-68
2023/08/24 08:47:49;;;;;;;;;;;;;;;;;;5054193;28;20368;-68
2023/08/24 08:50:15;;;;;;;;;;;;;;;;;;5055166;28;19942;-67
2023/08/24 08:52:41;;;;;;;;;;;;;;;;;;5054518;28;20003;-69
2023/08/24 08:55:09;;;;;;;;;;;;;;;;;;5053524;28;20368;-68
2023/08/24 08:57:36;;;;;;;;;;;;;;;;;;5035107;28;19917;-69
2023/08/24 09:00:02;;;;;;;;;;;;;;;;;;5033947;28;20280;-69
2023/08/24 09:02:28;;;;;;;;;;;;;;;;;;5040480;28;19913;-68
2023/08/24 09:04:54;;;;;;;;;;;;;;;;;;5063687;28;19913;-69
2023/08/24 09:07:20;;;;;;;;;;;;;;;;;;5084150;28;19920;-68
2023/08/24 09:09:46;;;;;;;;;;;;;;;;;;5073337;28;19995;-68
2023/08/24 09:12:12;;;;;;;;;;;;;;;;;;5071226;28;20019;-68
2023/08/24 09:14:39;;;;;;;;;;;;;;;;;;5071470;28;19909;-68
2023/08/24 09:17:05;;;;;;;;;;;;;;;;;;5071345;28;20013;-68
2023/08/24 09:19:31;;;;;;;;;;;;;;;;;;5071306;28;20366;-68
2023/08/24 09:21:57;;;;;;;;;;;;;;;;;;5064212;28;19982;-69
2023/08/24 09:24:23;;;;;;;;;;;;;;;;;;5083758;28;19951;-69
2023/08/24 09:26:49;;;;;;;;;;;;;;;;;;5072244;28;19924;-70
2023/08/24 09:29:15;;;;;;;;;;;;;;;;;;5087088;28;19919;-70
2023/08/24 09:31:43;;;;;;;;;;;;;;;;;;5094809;28;19909;-70
2023/08/24 09:34:09;;;;;;;;;;;;;;;;;;5094506;28;19934;-70
2023/08/24 09:36:35;;;;;;;;;;;;;;;;;;5077279;28;19916;-69
2023/08/24 09:39:04;;;;;;;;;;;;;;;;;;5088712;28;20014;-70
2023/08/24 09:41:30;;;;;;;;;;;;;;;;;;5082378;28;19912;-70
2023/08/24 09:43:56;;;;;;;;;;;;;;;;;;5058992;28;19912;-69
2023/08/24 09:46:23;;;;;;;;;;;;;;;;;;5091576;28;19924;-69
2023/08/24 09:48:49;;;;;;;;;;;;;;;;;;5070302;28;20017;-69
2023/08/24 09:51:15;;;;;;;;;;;;;;;;;;5062429;28;19974;-69
2023/08/24 09:53:41;;;;;;;;;;;;;;;;;;5077378;28;19920;-69
2023/08/24 09:56:07;;;;;;;;;;;;;;;;;;5088639;28;20531;-69
2023/08/24 09:58:33;;;;;;;;;;;;;;;;;;5067446;28;20372;-69
2023/08/24 10:00:58;;;;;;;;;;;;;;;;;;5075819;28;19919;-70
2023/08/24 10:03:24;;;;;;;;;;;;;;;;;;5088219;28;19912;-70
2023/08/24 10:05:51;;;;;;;;;;;;;;;;;;5058303;28;19915;-69
2023/08/24 10:08:17;;;;;;;;;;;;;;;;;;5088112;28;20442;-70
2023/08/24 10:10:43;;;;;;;;;;;;;;;;;;5081713;28;20026;-69
2023/08/24 10:13:09;;;;;;;;;;;;;;;;;;5074330;28;20415;-70
2023/08/24 10:15:35;;;;;;;;;;;;;;;;;;5089042;28;19912;-69
2023/08/24 10:18:01;;;;;;;;;;;;;;;;;;5084759;28;19950;-70
2023/08/24 10:20:27;;;;;;;;;;;;;;;;;;5086490;28;19912;-69
2023/08/24 10:22:53;;;;;;;;;;;;;;;;;;5085087;28;19913;-70
2023/08/24 10:25:19;;;;;;;;;;;;;;;;;;5073827;28;20554;-67
2023/08/24 10:27:47;;;;;;;;;;;;;;;;;;5078502;28;20288;-71
2023/08/24 10:30:13;;;;;;;;;;;;;;;;;;5071599;28;19915;-68
2023/08/24 10:32:38;;;;;;;;;;;;;;;;;;5072815;28;19909;-70
2023/08/24 10:35:04;;;;;;;;;;;;;;;;;;5055777;28;19951;-69
2023/08/24 10:37:31;;;;;;;;;;;;;;;;;;5076488;28;19913;-70
2023/08/24 10:39:56;;;;;;;;;;;;;;;;;;5064756;28;19908;-71
2023/08/24 10:42:23;;;;;;;;;;;;;;;;;;5073462;28;19963;-71
2023/08/24 10:44:51;;;;;;;;;;;;;;;;;;5074283;28;19928;-71
2023/08/24 10:47:17;;;;;;;;;;;;;;;;;;5084639;28;19990;-70
2023/08/24 10:49:43;;;;;;;;;;;;;;;;;;5073506;28;19955;-69
2023/08/24 10:52:09;;;;;;;;;;;;;;;;;;5073021;28;19909;-70
2023/08/24 10:54:35;;;;;;;;;;;;;;;;;;5076846;28;20380;-71
2023/08/24 10:57:01;;;;;;;;;;;;;;;;;;5088303;28;20282;-70
2023/08/24 10:59:27;;;;;;;;;;;;;;;;;;5090806;28;19994;-71
2023/08/24 11:01:53;;;;;;;;;;;;;;;;;;5086609;28;20311;-71
2023/08/24 11:04:19;;;;;;;;;;;;;;;;;;5071404;28;19991;-72
2023/08/24 11:06:45;;;;;;;;;;;;;;;;;;5069831;28;20023;-72
2023/08/24 11:09:17;;;;;;;;;;;;;;;;;;5071387;28;19994;-71
2023/08/24 11:11:43;;;;;;;;;;;;;;;;;;5071678;28;19915;-68
2023/08/24 11:14:09;;;;;;;;;;;;;;;;;;5078241;28;19911;-71
2023/08/24 11:16:35;;;;;;;;;;;;;;;;;;5073569;28;19912;-71
2023/08/24 11:19:01;;;;;;;;;;;;;;;;;;5056562;28;19916;-70
2023/08/24 11:21:27;;;;;;;;;;;;;;;;;;5069080;28;20336;-70
2023/08/24 11:23:53;;;;;;;;;;;;;;;;;;5091706;28;19995;-70
2023/08/24 11:26:19;;;;;;;;;;;;;;;;;;5091509;28;19928;-71
2023/08/24 11:28:45;;;;;;;;;;;;;;;;;;5075104;28;19908;-72
2023/08/24 11:31:11;;;;;;;;;;;;;;;;;;5074774;28;20423;-72
2023/08/24 11:33:37;;;;;;;;;;;;;;;;;;5080929;28;20383;-72
2023/08/24 11:36:03;;;;;;;;;;;;;;;;;;5070503;28;20453;-72
2023/08/24 11:38:30;;;;;;;;;;;;;;;;;;5083148;28;19935;-70
2023/08/24 11:40:58;;;;;;;;;;;;;;;;;;5078146;28;20011;-69
2023/08/24 11:43:24;;;;;;;;;;;;;;;;;;5064303;28;20455;-71
2023/08/24 11:45:50;;;;;;;;;;;;;;;;;;5072301;28;19921;-71
2023/08/24 11:48:16;;;;;;;;;;;;;;;;;;5089503;28;20378;-70
2023/08/24 11:50:42;;;;;;;;;;;;;;;;;;5091478;28;20669;-71
2023/08/24 11:53:08;;;;;;;;;;;;;;;;;;5078074;28;19908;-71
2023/08/24 11:55:34;;;;;;;;;;;;;;;;;;5074822;28;19908;-70
2023/08/24 11:58:00;;;;;;;;;;;;;;;;;;5078084;28;20066;-70
2023/08/24 12:00:26;;;;;;;;;;;;;;;;;;5077837;28;20292;-71
2023/08/24 12:02:52;;;;;;;;;;;;;;;;;;5070883;28;20334;-72
2023/08/24 12:05:18;;;;;;;;;;;;;;;;;;5055443;28;20399;-73
2023/08/24 12:07:44;;;;;;;;;;;;;;;;;;5072557;28;19925;-73
2023/08/24 12:10:10;;;;;;;;;;;;;;;;;;5055058;28;19947;-73
2023/08/24 12:12:36;;;;;;;;;;;;;;;;;;5054811;28;19924;-74
2023/08/24 12:15:02;;;;;;;;;;;;;;;;;;5072646;28;20410;-74
2023/08/24 12:17:28;;;;;;;;;;;;;;;;;;5073784;28;20288;-73
2023/08/24 12:19:54;;;;;;;;;;;;;;;;;;5057361;28;20367;-73
2023/08/24 12:22:20;;;;;;;;;;;;;;;;;;5075697;28;19916;-74
2023/08/24 12:24:46;;;;;;;;;;;;;;;;;;5058532;28;19908;-74
2023/08/24 12:27:12;;;;;;;;;;;;;;;;;;5076400;28;20007;-74
2023/08/24 12:29:38;;;;;;;;;;;;;;;;;;5076050;28;19987;-74
2023/08/24 12:32:04;;;;;;;;;;;;;;;;;;5077027;28;20326;-74
2023/08/24 12:34:29;;;;;;;;;;;;;;;;;;5076312;28;20368;-74
2023/08/24 12:36:55;;;;;;;;;;;;;;;;;;5075934;28;20422;-74
2023/08/24 12:39:21;;;;;;;;;;;;;;;;;;5058338;28;20356;-74
2023/08/24 12:41:47;;;;;;;;;;;;;;;;;;5076205;28;20329;-73
2023/08/24 12:44:14;;;;;;;;;;;;;;;;;;5075895;28;20323;-74
2023/08/24 12:46:40;;;;;;;;;;;;;;;;;;5075862;28;19954;-73
2023/08/24 12:49:06;;;;;;;;;;;;;;;;;;5075962;28;19912;-73
2023/08/24 12:51:32;;;;;;;;;;;;;;;;;;5075708;28;20011;-74
2023/08/24 12:53:58;;;;;;;;;;;;;;;;;;5075999;28;20330;-73
2023/08/24 12:56:24;;;;;;;;;;;;;;;;;;5075971;28;20398;-73
2023/08/24 12:58:50;;;;;;;;;;;;;;;;;;5075429;28;20288;-73
2023/08/24 13:01:16;;;;;;;;;;;;;;;;;;5076054;28;20258;-73
2023/08/24 13:03:42;;;;;;;;;;;;;;;;;;5075866;28;19913;-73
2023/08/24 13:06:08;;;;;;;;;;;;;;;;;;5075120;28;19920;-73
2023/08/24 13:08:34;;;;;;;;;;;;;;;;;;5075767;28;19948;-73
2023/08/24 13:11:00;;;;;;;;;;;;;;;;;;5075156;28;20045;-72
2023/08/24 13:13:26;;;;;;;;;;;;;;;;;;5075567;28;19915;-73
2023/08/24 13:15:52;;;;;;;;;;;;;;;;;;5075484;28;20003;-72
2023/08/24 13:18:18;;;;;;;;;;;;;;;;;;5074911;28;19909;-72
2023/08/24 13:20:44;;;;;;;;;;;;;;;;;;5057149;28;19935;-72
2023/08/24 13:23:10;;;;;;;;;;;;;;;;;;5057167;28;19912;-73
2023/08/24 13:25:36;;;;;;;;;;;;;;;;;;5074595;28;20417;-73
2023/08/24 14:31:25;;;;;;;;;;;;;;;;;;5134023;27;20351;-73
2023/08/24 14:33:51;;;;;;;;;;;;;;;;;;5131454;28;20681;-73
2023/08/24 14:36:17;;;;;;;;;;;;;;;;;;5131955;28;19984;-73
2023/08/24 14:38:43;;;;;;;;;;;;;;;;;;5131882;28;20278;-73
2023/08/24 14:41:09;;;;;;;;;;;;;;;;;;5131508;28;20297;-73
2023/08/24 14:43:35;;;;;;;;;;;;;;;;;;5131529;28;19984;-73
2023/08/24 14:46:01;;;;;;;;;;;;;;;;;;5131846;28;19912;-73
2023/08/24 14:48:27;;;;;;;;;;;;;;;;;;5131032;28;19930;-73
2023/08/24 14:50:53;;;;;;;;;;;;;;;;;;5131476;28;19960;-73
2023/08/24 14:53:19;;;;;;;;;;;;;;;;;;5131372;28;19915;-73
2023/08/24 14:55:45;;;;;;;;;;;;;;;;;;5130937;28;19911;-72
2023/08/24 14:58:11;;;;;;;;;;;;;;;;;;5131296;28;19998;-73
2023/08/24 15:00:37;;;;;;;;;;;;;;;;;;5131091;28;20053;-73
2023/08/24 15:03:03;;;;;;;;;;;;;;;;;;5112410;28;19953;-73
2023/08/24 15:05:29;;;;;;;;;;;;;;;;;;5131229;28;19915;-73
2023/08/24 15:07:55;;;;;;;;;;;;;;;;;;5131012;28;19912;-73
2023/08/24 15:10:21;;;;;;;;;;;;;;;;;;5130563;28;19915;-73
2023/08/24 15:12:47;;;;;;;;;;;;;;;;;;5130984;28;19908;-73
2023/08/24 15:15:19;;;;;;;;;;;;;;;;;;5131057;28;19947;-73
2023/08/24 15:17:45;;;;;;;;;;;;;;;;;;5130605;28;20002;-73
2023/08/24 15:20:14;;;;;;;;;;;;;;;;;;5130851;28;19923;-73
2023/08/24 15:22:39;;;;;;;;;;;;;;;;;;5130826;28;20214;-72
2023/08/24 15:25:05;;;;;;;;;;;;;;;;;;5130390;28;19914;-72
2023/08/24 15:27:31;;;;;;;;;;;;;;;;;;5131156;28;20373;-73
2023/08/24 15:29:57;;;;;;;;;;;;;;;;;;5130268;28;20288;-73
2023/08/24 15:32:23;;;;;;;;;;;;;;;;;;5117270;28;20353;-73
2023/08/24 15:34:49;;;;;;;;;;;;;;;;;;5117077;28;20284;-73
2023/08/24 15:37:15;;;;;;;;;;;;;;;;;;5116715;28;20314;-73
2023/08/24 15:39:41;;;;;;;;;;;;;;;;;;5098767;28;20365;-73
2023/08/24 15:42:07;;;;;;;;;;;;;;;;;;5117160;28;19954;-73
2023/08/24 15:44:33;;;;;;;;;;;;;;;;;;5116639;28;19960;-73
2023/08/24 15:46:59;;;;;;;;;;;;;;;;;;5116864;28;20036;-73
2023/08/24 15:49:25;;;;;;;;;;;;;;;;;;5116742;28;20277;-73
2023/08/24 15:51:51;;;;;;;;;;;;;;;;;;5116264;28;19912;-72
2023/08/24 15:54:17;;;;;;;;;;;;;;;;;;5116827;28;19908;-72
2023/08/24 15:56:45;;;;;;;;;;;;;;;;;;5116646;28;20382;-72
2023/08/24 15:59:10;;;;;;;;;;;;;;;;;;5116103;28;19916;-72
2023/08/24 16:01:36;;;;;;;;;;;;;;;;;;5116782;28;20388;-72
2023/08/24 16:04:02;;;;;;;;;;;;;;;;;;5116671;28;19908;-72
2023/08/24 16:06:28;;;;;;;;;;;;;;;;;;5116245;28;19908;-74
2023/08/24 16:08:54;;;;;;;;;;;;;;;;;;5116735;28;19996;-73
2023/08/24 16:11:20;;;;;;;;;;;;;;;;;;5116475;28;19915;-71
2023/08/24 16:13:46;;;;;;;;;;;;;;;;;;5115938;28;19915;-72
2023/08/24 16:16:12;;;;;;;;;;;;;;;;;;5116279;28;19915;-73
2023/08/24 16:18:38;;;;;;;;;;;;;;;;;;5097809;28;19915;-73
2023/08/24 16:21:04;;;;;;;;;;;;;;;;;;5115734;28;19915;-72
2023/08/24 16:23:30;;;;;;;;;;;;;;;;;;5116138;28;19907;-72
2023/08/24 16:25:56;;;;;;;;;;;;;;;;;;5116082;28;19908;-73
2023/08/24 16:28:22;;;;;;;;;;;;;;;;;;5115611;28;19915;-73
2023/08/24 16:30:48;;;;;;;;;;;;;;;;;;5115565;28;19924;-74
2023/08/24 16:33:14;;;;;;;;;;;;;;;;;;5097281;28;19958;-74
2023/08/24 16:35:40;;;;;;;;;;;;;;;;;;5115783;28;19939;-73
2023/08/24 16:38:06;;;;;;;;;;;;;;;;;;5115750;28;19942;-73
2023/08/24 16:40:32;;;;;;;;;;;;;;;;;;5097027;28;20052;-73
2023/08/24 16:42:58;;;;;;;;;;;;;;;;;;5114704;28;19957;-73
2023/08/24 16:45:24;;;;;;;;;;;;;;;;;;5115741;28;19919;-72
2023/08/24 16:47:50;;;;;;;;;;;;;;;;;;5096874;28;19908;-73
2023/08/24 16:50:16;;;;;;;;;;;;;;;;;;5115577;28;19908;-72
2023/08/24 16:52:42;;;;;;;;;;;;;;;;;;5097099;28;19915;-73
2023/08/24 16:55:08;;;;;;;;;;;;;;;;;;5115137;28;19908;-72
2023/08/24 16:57:34;;;;;;;;;;;;;;;;;;5115512;28;19908;-73
2023/08/24 17:00:00;;;;;;;;;;;;;;;;;;5115374;28;20289;-73
2023/08/24 17:02:26;;;;;;;;;;;;;;;;;;5114911;28;19931;-73
2023/08/24 17:04:52;;;;;;;;;;;;;;;;;;5115502;28;20323;-73
2023/08/24 17:07:17;;;;;;;;;;;;;;;;;;5115551;28;20429;-72
2023/08/24 17:09:44;;;;;;;;;;;;;;;;;;5114793;28;20383;-72
2023/08/24 17:12:10;;;;;;;;;;;;;;;;;;5115146;28;20373;-72
2023/08/24 17:14:38;;;;;;;;;;;;;;;;;;5114843;28;20003;-72
2023/08/24 17:17:03;;;;;;;;;;;;;;;;;;5114516;28;20002;-72
2023/08/24 17:19:29;;;;;;;;;;;;;;;;;;5114952;28;19999;-72
2023/08/24 17:21:55;;;;;;;;;;;;;;;;;;5114978;28;19908;-72
2023/08/24 17:24:23;;;;;;;;;;;;;;;;;;5114459;28;19915;-72
2023/08/24 17:26:49;;;;;;;;;;;;;;;;;;5114692;28;19912;-73
2023/08/24 17:29:15;;;;;;;;;;;;;;;;;;5114464;28;19934;-73
2023/08/24 17:31:41;;;;;;;;;;;;;;;;;;5114472;28;20361;-73
2023/08/24 17:34:07;;;;;;;;;;;;;;;;;;5096559;28;20277;-72
2023/08/24 17:36:33;;;;;;;;;;;;;;;;;;5114663;28;20432;-72
2023/08/24 17:38:59;;;;;;;;;;;;;;;;;;5114624;28;20381;-72
2023/08/24 17:41:25;;;;;;;;;;;;;;;;;;5114616;28;20032;-72
2023/08/24 17:43:51;;;;;;;;;;;;;;;;;;5114166;28;19907;-73
2023/08/24 17:46:17;;;;;;;;;;;;;;;;;;5096168;28;19908;-73
2023/08/24 17:48:43;;;;;;;;;;;;;;;;;;5114738;28;19915;-73
2023/08/24 17:51:08;;;;;;;;;;;;;;;;;;5114074;28;19948;-72
2023/08/24 17:53:34;;;;;;;;;;;;;;;;;;5114285;28;20399;-73
2023/08/24 17:56:01;;;;;;;;;;;;;;;;;;5114410;28;20353;-72
2023/08/24 17:58:26;;;;;;;;;;;;;;;;;;5113873;28;19911;-73
2023/08/24 18:00:52;;;;;;;;;;;;;;;;;;5114203;28;19922;-72
2023/08/24 18:03:18;;;;;;;;;;;;;;;;;;5114256;28;19908;-72
2023/08/24 18:07:35;;;;;;;;;;;;;;;;;;5112118;27;20387;-73
2023/08/24 18:10:01;;;;;;;;;;;;;;;;;;5111697;28;19912;-73
2023/08/24 18:12:27;;;;;;;;;;;;;;;;;;5111282;28;20006;-73
2023/08/24 18:16:39;;;;;;;;;;;;;;;;;;5091294;27;19916;-73
2023/08/24 18:19:05;;;;;;;;;;;;;;;;;;5089567;28;20003;-72
2023/08/24 18:21:32;;;;;;;;;;;;;;;;;;5091763;28;19909;-72
2023/08/24 18:23:58;;;;;;;;;;;;;;;;;;5091160;28;20457;-72
2023/08/24 18:26:24;;;;;;;;;;;;;;;;;;5089450;28;19908;-74
2023/08/24 18:32:07;;;;;;;;;;;;;;;;;;5091623;27;19922;-74
2023/08/24 18:34:33;;;;;;;;;;;;;;;;;;5091172;28;20355;-73
2023/08/24 18:36:59;;;;;;;;;;;;;;;;;;5091388;28;19944;-73
2023/08/24 18:41:38;;;;;;;;;;;;;;;;;;5152558;27;20381;-74
2023/08/24 18:44:04;;;;;;;;;;;;;;;;;;5152927;27;20282;-74
2023/08/24 18:46:29;;;;;;;;;;;;;;;;;;5152873;27;19908;-72
2023/08/24 18:51:24;;;;;;;;;;;;;;;;;;5112285;27;19938;-72
2023/08/24 18:53:50;;;;;;;;;;;;;;;;;;5111305;28;19919;-73
2023/08/24 18:56:16;;;;;;;;;;;;;;;;;;5111605;28;19908;-73